F/V Berceaudelocean — FQEB — position and weather

sailwx.info

Track history (hours):
 
Tides and Currents Weather Stations Pressure Air Temp Water Temp Dewpoint Dewpoint Depression Visibility Wind Speed Wind Dir Waves Ship Positions

F/V Berceaudelocean

Last reported at 2017-Sep-25 12:18 UTC. Time now 2017-Sep-26 09:32 UTC.
Position N 48°06' W 004°19'.

Type: Fishing. MMSI: 228156900.

Date/timePositionNaut miles runAvg speedWind from/ knotsBaromVisibWave heightAir tempDewpointWater temp
2017-Sep-25 12:18N 48°06' W 004°19'0 0.0
2017-Sep-25 12:00N 48°06' W 004°19'0 0.0
2017-Sep-25 11:30N 48°06' W 004°19'0 0.0
2017-Sep-25 11:00N 48°06' W 004°19'0 0.0
2017-Sep-25 10:30N 48°06' W 004°19'0 0.0
2017-Sep-25 10:00N 48°06' W 004°19'0 0.0
2017-Sep-25 09:30N 48°06' W 004°19'0 0.0
2017-Sep-25 09:00N 48°06' W 004°19'0 0.0
2017-Sep-25 08:30N 48°06' W 004°19'0 0.0
2017-Sep-25 08:00N 48°06' W 004°19'  
2017-Sep-21 20:48N 48°06' W 004°19'0 0.4
2017-Sep-21 20:30N 48°06' W 004°20'1 1.1
2017-Sep-21 20:00N 48°06' W 004°20'2 4.3
2017-Sep-21 19:30N 48°07' W 004°23'2 3.6
2017-Sep-21 19:01N 48°07' W 004°25'0 0.1
2017-Sep-21 18:30N 48°07' W 004°25'0 0.1
2017-Sep-21 18:01N 48°07' W 004°25'0 0.3
2017-Sep-21 17:30N 48°07' W 004°26'0 0.3
2017-Sep-21 17:00N 48°08' W 004°26'2 4.2
2017-Sep-21 16:30N 48°07' W 004°23'2 4.8
2017-Sep-21 16:01N 48°06' W 004°20'0 0.3
2017-Sep-21 15:30N 48°06' W 004°19'0 0.0
2017-Sep-21 15:00N 48°06' W 004°19'0 0.0
2017-Sep-21 03:30N 48°06' W 004°19'0 0.3
2017-Sep-21 03:00N 48°06' W 004°20'4 7.6
2017-Sep-21 02:30N 48°08' W 004°24'2 3.4
2017-Sep-21 02:00N 48°10' W 004°23'2 3.6
2017-Sep-21 01:30N 48°09' W 004°24'1 2.3
2017-Sep-21 01:00N 48°08' W 004°26'1 1.6
2017-Sep-21 00:30N 48°09' W 004°25'2 4.1
2017-Sep-21 00:00N 48°09' W 004°28'510.4
2017-Sep-20 23:30N 48°06' W 004°35'510.5
2017-Sep-20 23:00N 48°05' W 004°42'510.5
2017-Sep-20 22:30N 48°00' W 004°46'510.8
2017-Sep-20 22:00N 47°55' W 004°43'7 4.1
2017-Sep-20 20:11N 47°47' W 004°43'10 5.6
2017-Sep-20 18:25N 47°51' W 004°29'4 5.2
2017-Sep-20 17:35N 47°49' W 004°23'0 0.0
2017-Sep-20 17:30N 47°49' W 004°23'0 0.0
2017-Sep-20 06:19N 47°49' W 004°23'0 0.1
2017-Sep-20 03:33N 47°49' W 004°23'0 0.4
2017-Sep-20 02:46N 47°49' W 004°23'14 9.7
2017-Sep-20 01:20N 47°47' W 004°43'3 2.6
2017-Sep-20 00:20N 47°46' W 004°47'1 0.9
2017-Sep-19 23:19N 47°46' W 004°45'3 8.3
2017-Sep-19 23:00N 47°48' W 004°43'5 9.3
2017-Sep-19 22:30N 47°53' W 004°43'3 6.2
2017-Sep-19 22:00N 47°56' W 004°43'0 0.9
2017-Sep-19 21:30N 47°56' W 004°43'1 2.1
2017-Sep-19 21:01N 47°56' W 004°45'1 1.9
2017-Sep-19 20:30N 47°55' W 004°43'3 4.7
2017-Sep-19 19:58N 47°56' W 004°40'1 2.1
2017-Sep-19 19:30N 47°56' W 004°38'2 4.0
2017-Sep-19 19:01N 47°57' W 004°41'3 6.1
2017-Sep-19 18:31N 47°58' W 004°45'612.2
2017-Sep-19 18:01N 48°04' W 004°45'510.2
2017-Sep-19 17:30N 48°05' W 004°38'510.0
2017-Sep-19 17:01N 48°06' W 004°31'5 9.7
2017-Sep-19 16:30N 48°07' W 004°23'3 5.8
2017-Sep-19 16:00N 48°06' W 004°19'0 0.0
2017-Sep-19 15:31N 48°06' W 004°19'0 0.0
2017-Sep-19 03:20N 48°06' W 004°19'0 0.0
2017-Sep-19 02:01N 48°06' W 004°19'0 0.0
2017-Sep-19 02:00N 48°06' W 004°19'0 0.1
2017-Sep-19 01:30N 48°06' W 004°19'0 0.0
2017-Sep-19 01:00N 48°06' W 004°19'0 0.0
2017-Sep-19 00:30N 48°06' W 004°19'0 0.0
2017-Sep-19 00:00N 48°06' W 004°19'0 0.0
2017-Sep-18 23:30N 48°06' W 004°19'0 0.0
2017-Sep-18 23:00N 48°06' W 004°19'0 0.0
2017-Sep-18 22:30N 48°06' W 004°19'2 4.3
2017-Sep-18 22:00N 48°07' W 004°22'5 9.7
2017-Sep-18 21:30N 48°09' W 004°29'5 9.8
2017-Sep-18 21:00N 48°10' W 004°36'4 7.7
2017-Sep-18 20:31N 48°12' W 004°41'5 9.8
2017-Sep-18 20:00N 48°13' W 004°48'2 3.4
2017-Sep-18 19:30N 48°14' W 004°50'0 0.3
2017-Sep-18 19:00N 48°14' W 004°50'5 9.6
2017-Sep-18 18:30N 48°11' W 004°45'5 9.6
2017-Sep-18 18:00N 48°09' W 004°38'5 9.9
2017-Sep-18 17:30N 48°08' W 004°31'5 9.1
2017-Sep-18 17:00N 48°08' W 004°24'4 7.3
2017-Sep-18 16:30N 48°06' W 004°19'0 0.0
2017-Sep-18 16:00N 48°06' W 004°19'0 0.0
2017-Sep-18 15:30N 48°06' W 004°19'0 0.0
2017-Sep-18 03:50N 48°06' W 004°19'0 0.0
2017-Sep-18 03:30N 48°06' W 004°19'0 0.0
2017-Sep-18 03:00N 48°06' W 004°19'3 5.6
2017-Sep-18 02:30N 48°08' W 004°23'5 9.9
2017-Sep-18 02:00N 48°09' W 004°30'3 6.2
2017-Sep-18 01:30N 48°08' W 004°34'0 1.0
2017-Sep-18 01:00N 48°08' W 004°33'1 1.6
2017-Sep-18 00:30N 48°09' W 004°32'0 0.9
2017-Sep-18 00:00N 48°09' W 004°32'1 1.5
2017-Sep-17 23:30N 48°10' W 004°31'2 4.5
2017-Sep-17 23:00N 48°08' W 004°34'1 1.7
2017-Sep-17 22:30N 48°08' W 004°35'5 9.2
2017-Sep-17 22:00N 48°09' W 004°42'4 8.8
2017-Sep-17 21:30N 48°10' W 004°48'4 8.5
2017-Sep-17 21:00N 48°10' W 004°55'5 9.3
2017-Sep-17 20:30N 48°13' W 004°49'4 8.1
2017-Sep-17 20:00N 48°17' W 004°50'0 0.1
2017-Sep-17 19:30N 48°17' W 004°50'2 3.4
2017-Sep-17 19:00N 48°16' W 004°52'4 8.0
2017-Sep-17 18:30N 48°13' W 004°48'5 9.6
2017-Sep-17 18:00N 48°11' W 004°42'5 9.8
2017-Sep-17 17:30N 48°09' W 004°35'510.0
2017-Sep-17 17:00N 48°08' W 004°28'5 9.7
2017-Sep-17 16:30N 48°07' W 004°20'1 2.8
2017-Sep-17 16:00N 48°06' W 004°20'0 0.0
2017-Sep-17 15:29N 48°06' W 004°20'  
Track history (hours):
 
Tides and Currents Weather Stations Pressure Air Temp Water Temp Dewpoint Dewpoint Depression Visibility Wind Speed Wind Dir Waves Ship Positions

F/V Berceaudelocean

Last reported at 2017-Sep-25 12:18 UTC. Time now 2017-Sep-26 09:32 UTC.
Position N 48°06' W 004°19'.

Type: Fishing. MMSI: 228156900.

Date/timePositionNaut miles runAvg speedWind from/ knotsBaromVisibWave heightAir tempDewpointWater temp
2017-Sep-25 12:18N 48°06' W 004°19'0 0.0
2017-Sep-25 12:00N 48°06' W 004°19'0 0.0
2017-Sep-25 11:30N 48°06' W 004°19'0 0.0
2017-Sep-25 11:00N 48°06' W 004°19'0 0.0
2017-Sep-25 10:30N 48°06' W 004°19'0 0.0
2017-Sep-25 10:00N 48°06' W 004°19'0 0.0
2017-Sep-25 09:30N 48°06' W 004°19'0 0.0
2017-Sep-25 09:00N 48°06' W 004°19'0 0.0
2017-Sep-25 08:30N 48°06' W 004°19'0 0.0
2017-Sep-25 08:00N 48°06' W 004°19'  
2017-Sep-21 20:48N 48°06' W 004°19'0 0.4
2017-Sep-21 20:30N 48°06' W 004°20'1 1.1
2017-Sep-21 20:00N 48°06' W 004°20'2 4.3
2017-Sep-21 19:30N 48°07' W 004°23'2 3.6
2017-Sep-21 19:01N 48°07' W 004°25'0 0.1
2017-Sep-21 18:30N 48°07' W 004°25'0 0.1
2017-Sep-21 18:01N 48°07' W 004°25'0 0.3
2017-Sep-21 17:30N 48°07' W 004°26'0 0.3
2017-Sep-21 17:00N 48°08' W 004°26'2 4.2
2017-Sep-21 16:30N 48°07' W 004°23'2 4.8
2017-Sep-21 16:01N 48°06' W 004°20'0 0.3
2017-Sep-21 15:30N 48°06' W 004°19'0 0.0
2017-Sep-21 15:00N 48°06' W 004°19'0 0.0
2017-Sep-21 03:30N 48°06' W 004°19'0 0.3
2017-Sep-21 03:00N 48°06' W 004°20'4 7.6
2017-Sep-21 02:30N 48°08' W 004°24'2 3.4
2017-Sep-21 02:00N 48°10' W 004°23'2 3.6
2017-Sep-21 01:30N 48°09' W 004°24'1 2.3
2017-Sep-21 01:00N 48°08' W 004°26'1 1.6
2017-Sep-21 00:30N 48°09' W 004°25'2 4.1
2017-Sep-21 00:00N 48°09' W 004°28'510.4
2017-Sep-20 23:30N 48°06' W 004°35'510.5
2017-Sep-20 23:00N 48°05' W 004°42'510.5
2017-Sep-20 22:30N 48°00' W 004°46'510.8
2017-Sep-20 22:00N 47°55' W 004°43'7 4.1
2017-Sep-20 20:11N 47°47' W 004°43'10 5.6
2017-Sep-20 18:25N 47°51' W 004°29'4 5.2
2017-Sep-20 17:35N 47°49' W 004°23'0 0.0
2017-Sep-20 17:30N 47°49' W 004°23'0 0.0
2017-Sep-20 06:19N 47°49' W 004°23'0 0.1
2017-Sep-20 03:33N 47°49' W 004°23'0 0.4
2017-Sep-20 02:46N 47°49' W 004°23'14 9.7
2017-Sep-20 01:20N 47°47' W 004°43'3 2.6
2017-Sep-20 00:20N 47°46' W 004°47'1 0.9
2017-Sep-19 23:19N 47°46' W 004°45'3 8.3
2017-Sep-19 23:00N 47°48' W 004°43'5 9.3
2017-Sep-19 22:30N 47°53' W 004°43'3 6.2
2017-Sep-19 22:00N 47°56' W 004°43'0 0.9
2017-Sep-19 21:30N 47°56' W 004°43'1 2.1
2017-Sep-19 21:01N 47°56' W 004°45'1 1.9
2017-Sep-19 20:30N 47°55' W 004°43'3 4.7
2017-Sep-19 19:58N 47°56' W 004°40'1 2.1
2017-Sep-19 19:30N 47°56' W 004°38'2 4.0
2017-Sep-19 19:01N 47°57' W 004°41'3 6.1
2017-Sep-19 18:31N 47°58' W 004°45'612.2
2017-Sep-19 18:01N 48°04' W 004°45'510.2
2017-Sep-19 17:30N 48°05' W 004°38'510.0
2017-Sep-19 17:01N 48°06' W 004°31'5 9.7
2017-Sep-19 16:30N 48°07' W 004°23'3 5.8
2017-Sep-19 16:00N 48°06' W 004°19'0 0.0
2017-Sep-19 15:31N 48°06' W 004°19'0 0.0
2017-Sep-19 03:20N 48°06' W 004°19'0 0.0
2017-Sep-19 02:01N 48°06' W 004°19'0 0.0
2017-Sep-19 02:00N 48°06' W 004°19'0 0.1
2017-Sep-19 01:30N 48°06' W 004°19'0 0.0
2017-Sep-19 01:00N 48°06' W 004°19'0 0.0
2017-Sep-19 00:30N 48°06' W 004°19'0 0.0
2017-Sep-19 00:00N 48°06' W 004°19'0 0.0
2017-Sep-18 23:30N 48°06' W 004°19'0 0.0
2017-Sep-18 23:00N 48°06' W 004°19'0 0.0
2017-Sep-18 22:30N 48°06' W 004°19'2 4.3
2017-Sep-18 22:00N 48°07' W 004°22'5 9.7
2017-Sep-18 21:30N 48°09' W 004°29'5 9.8
2017-Sep-18 21:00N 48°10' W 004°36'4 7.7
2017-Sep-18 20:31N 48°12' W 004°41'5 9.8
2017-Sep-18 20:00N 48°13' W 004°48'2 3.4
2017-Sep-18 19:30N 48°14' W 004°50'0 0.3
2017-Sep-18 19:00N 48°14' W 004°50'5 9.6
2017-Sep-18 18:30N 48°11' W 004°45'5 9.6
2017-Sep-18 18:00N 48°09' W 004°38'5 9.9
2017-Sep-18 17:30N 48°08' W 004°31'5 9.1
2017-Sep-18 17:00N 48°08' W 004°24'4 7.3
2017-Sep-18 16:30N 48°06' W 004°19'0 0.0
2017-Sep-18 16:00N 48°06' W 004°19'0 0.0
2017-Sep-18 15:30N 48°06' W 004°19'0 0.0
2017-Sep-18 03:50N 48°06' W 004°19'0 0.0
2017-Sep-18 03:30N 48°06' W 004°19'0 0.0
2017-Sep-18 03:00N 48°06' W 004°19'3 5.6
2017-Sep-18 02:30N 48°08' W 004°23'5 9.9
2017-Sep-18 02:00N 48°09' W 004°30'3 6.2
2017-Sep-18 01:30N 48°08' W 004°34'0 1.0
2017-Sep-18 01:00N 48°08' W 004°33'1 1.6
2017-Sep-18 00:30N 48°09' W 004°32'0 0.9
2017-Sep-18 00:00N 48°09' W 004°32'1 1.5
2017-Sep-17 23:30N 48°10' W 004°31'2 4.5
2017-Sep-17 23:00N 48°08' W 004°34'1 1.7
2017-Sep-17 22:30N 48°08' W 004°35'5 9.2
2017-Sep-17 22:00N 48°09' W 004°42'4 8.8
2017-Sep-17 21:30N 48°10' W 004°48'4 8.5
2017-Sep-17 21:00N 48°10' W 004°55'5 9.3
2017-Sep-17 20:30N 48°13' W 004°49'4 8.1
2017-Sep-17 20:00N 48°17' W 004°50'0 0.1
2017-Sep-17 19:30N 48°17' W 004°50'2 3.4
2017-Sep-17 19:00N 48°16' W 004°52'4 8.0
2017-Sep-17 18:30N 48°13' W 004°48'5 9.6
2017-Sep-17 18:00N 48°11' W 004°42'5 9.8
2017-Sep-17 17:30N 48°09' W 004°35'510.0
2017-Sep-17 17:00N 48°08' W 004°28'5 9.7
2017-Sep-17 16:30N 48°07' W 004°20'1 2.8
2017-Sep-17 16:00N 48°06' W 004°20'0 0.0
2017-Sep-17 15:29N 48°06' W 004°20'  

Dump ship's entire track history